ACT        NSW        VIC        QLD        SA        WA        TAS        NT        INFO        CALC            by VK5ZD

  Atmospheric Gas Attenuation - ITU Rec 676-11   --------------- db/100km ---------------
QLD Stations Date Time Temp RH % AH g/m3 Dew Point Wind Direction Speed kph Gust kph Barometer mB Rainfall Since 9am 24GHz 47GHz 76GHz 122GHz 134GHz 241GHz
Alva Beach 11 21:50 26.6 88 22.15 24.4 11 13 1010.4 0 47.5 45.2 90.5 239.7 269.0 934.5
Amberley 11 21:50 17.7 48 7.24 6.6 0 0 1013.8 0 16.5 22.8 32.9 86.0 77.0 264.1
Applethorpe 11 21:50 10.2 47 4.47 -0.6 11 13 1014.1 0 10.9 20.5 25.6 66.6 50.2 169.0
Archerfield 11 21:50 17.7 50 7.54 7.2 13 15 1013.5 0 17.2 23.2 34.0 88.9 80.6 276.6
Ayr 11 21:00 25.7 99 23.7 25.5 4 9 1013.1 0 50.9 49.1 99.8 264.4 298.8 1038.0
Ballera 11 21:50 16.8 32 4.57 0 20 24 1019.6 0 10.9 19.4 24.2 62.7 47.6 160.5
Barcaldine 11 15:00 29.8 42 12.6 15.7 19 1013.1 0 27.1 27.4 46.5 122.7 126.0 437.1
Beaudesert Aws 11 21:50 16.1 56 7.68 7.5 0 0 1013.6 0 17.5 23.8 35.2 92.1 84.0 288.3
Beerburrum 11 21:50 17 55 7.96 7.9 0 0 1013.1 0 18.1 24.0 35.8 93.8 86.4 297.0
Biloela 11 21:50 19.5 57 9.57 10.8 9 11 1014 0 21.4 25.8 40.8 107.1 103.6 357.5
Birdsville 11 21:50 18.8 37 5.96 3.8 20 22 1019.8 0 13.8 20.9 28.2 73.5 61.6 210.1
Blackall 11 21:50 19.4 36 6.01 4 15 19 1015.1 0 13.9 20.7 28.0 73.0 61.5 209.7
Blackwater Airport 11 21:50 23.9 38 8.22 8.7 26 30 1012.4 0 18.3 22.6 33.8 88.5 82.2 282.9
Bowen Airport Aws 11 21:50 25.7 95 22.74 24.8 4 4 1013.1 0 48.9 47.1 94.8 251.1 282.6 981.6
Brisbane 11 21:50 20.2 39 6.82 5.8 6 6 1013.5 0.2 15.5 21.6 30.4 79.5 69.8 239.2
Brisbane Airport 11 21:50 18.3 48 7.5 7.1 26 32 1013.2 0 17.1 23.0 33.6 87.8 79.5 272.9
Bundaberg 11 21:50 21.6 83 15.74 18.6 13 13 1012.6 0 34.3 35.5 65.2 172.3 184.5 640.2
Burketown Airport 11 21:50 25.1 44 10.19 12 13 13 1010.5 0 22.4 25.0 40.1 105.5 103.6 358.1
Cairns 11 21:50 26.6 89 22.4 24.6 4 4 1010.7 0 48.0 45.8 91.8 243.1 273.1 948.9
Cairns Racecourse 11 21:50 25 92 21.18 23.6 0 0 1013.1 0 45.6 44.3 87.8 232.4 259.4 900.9
Camooweal 11 21:50 23.5 24 5.08 1.8 19 20 1014 0 11.8 18.6 23.7 61.6 48.8 165.5
Canungra (Defence) 11 21:50 11.3 89 9.08 9.5 4 4 1013.1 0 20.7 27.4 43.1 113.2 108.2 372.6
Cape Flattery 11 21:50 27.6 82 21.82 24.2 9 13 1011.2 0 46.7 44.1 87.8 232.4 260.2 904.3
Cape Moreton 11 21:50 21 56 10.26 11.9 22 26 1013.1 0 22.7 26.4 42.6 112.0 110.2 380.8
Carters Bore 11 21:50 22.4 23 4.57 0.2 9 11 1013.1 0 10.8 18.1 22.4 58.1 44.2 149.3
Century Mine 11 21:50 28.5 21 5.87 4.1 13 15 1011.7 0 13.3 18.5 24.6 64.1 53.5 182.7
Charleville 11 21:50 16.9 37 5.32 2.1 13 15 1017.2 0 12.5 20.3 26.6 69.1 55.7 189.1
Charters Towers 11 15:00 34.6 20 7.75 9 6 1007.2 0 16.9 19.4 28.1 73.7 67.2 231.5
Chinchilla Airport 11 12:17 24.3 38 8.41 9.2 22 26 1011.7 0 18.7 22.7 34.2 89.7 83.9 288.9
Clermont Airport 11 21:50 24.4 38 8.46 9.5 11 13 1012 0 18.8 22.8 34.4 90.1 84.4 290.6
Cloncurry 11 21:50 25.4 18 4.24 -0.6 22 26 1013.1 0 10.0 17.2 20.7 53.5 39.5 132.9
Coen Airport 11 21:50 24.9 80 18.31 21.2 2 6 1011.5 0 39.5 38.7 73.9 195.6 214.2 744.1
Cooktown 11 21:50 24.1 88 19.25 22 7 9 1011.3 0 41.6 40.9 79.2 209.5 231.1 802.7
Coolangatta 11 21:50 16.8 72 10.29 11.7 0 4 1012.8 0 23.0 27.7 45.0 118.4 116.7 403.0
Cowley Beach (Defence) 11 21:50 23.8 96 20.65 23.1 2 4 1013.1 0 44.6 43.9 86.5 229.0 254.9 885.2
Dalby 11 21:50 15.3 45 5.88 3.5 20 26 1015.8 0 13.7 21.4 29.0 75.6 63.2 215.3
Emerald 11 21:50 24.5 36 8.06 8.5 33 41 1012.4 0 18.0 22.2 33.0 86.4 79.8 274.5
Gatton 11 21:50 16.1 50 6.85 5.7 19 24 1013.1 0 15.8 22.6 32.1 83.9 73.8 252.7
Gayndah 11 21:50 20.4 41 7.25 7 7 7 1014.2 0 16.4 22.1 31.9 83.3 74.6 256.0
Georgetown Airport 11 21:50 23.9 56 12.11 14.6 7 9 1010.4 0 26.5 28.3 48.0 126.6 129.2 447.5
Gladstone 11 21:50 21.4 87 16.31 19.1 11 15 1012.3 0 35.6 36.6 68.0 179.6 193.5 671.6
Gladstone Airport 11 21:50 22.2 76 14.92 17.8 9 11 1012.5 0 32.5 33.7 61.0 161.2 171.1 593.5
Gold Coast Seaway 11 21:50 21.4 31 5.81 3.6 15 19 1012.8 0 13.4 19.9 26.6 69.3 57.7 196.7
Goondiwindi 11 21:50 13.8 44 5.24 2 1013.1 0 12.4 20.8 27.2 70.7 56.7 192.4
Greenbank (Defence) 11 21:50 16.6 58 8.19 8.3 2 4 1013.1 0 18.6 24.5 36.8 96.6 89.7 308.5
Gympie 11 21:50 21.7 40 7.63 7.5 9 11 1013.9 0 17.2 22.4 32.7 85.5 77.7 267.0
Hamilton Island 11 21:50 26.4 91 22.65 24.8 30 35 1009.9 0 48.6 46.3 93.3 247.0 277.8 965.2
Hervey Bay 11 21:50 21.7 91 17.36 20.2 4 6 1013.1 0 37.8 38.5 72.7 192.1 209.0 725.2
Horn Island 11 21:50 26 86 20.94 23.5 0 0 1011.5 0 45.0 43.2 85.3 225.9 251.8 874.7
Hughenden 11 21:50 21.5 47 8.86 9.7 9 11 1011.9 0 19.8 24.1 37.0 97.2 92.2 317.8
Innisfail Aero 11 21:50 23.1 100 20.67 23.1 7 9 1010.4 0 44.8 44.2 87.3 231.0 257.2 893.2
Julia Creek 11 21:50 25.1 25 5.79 3.7 22 28 1012.5 0 13.2 19.1 25.4 66.1 55.0 187.4
Kingaroy 11 21:50 12 70 7.46 6.7 11 13 1014.6 0 17.2 24.6 36.2 94.7 85.7 293.8
Kowanyama 11 21:50 24.1 97 21.22 23.6 0 0 1010.8 0.4 45.8 44.8 88.9 235.3 262.8 912.8
Lady Elliot Island 11 21:50 25.3 64 14.98 18 6 6 1011.7 0 32.4 32.6 58.8 155.4 165.0 572.7
Lake Julius 11 21:50 26.3 19 4.7 0.8 17 22 1013.1 0 10.9 17.6 21.8 56.5 43.5 147.0
Lochington 11 21:50 21.1 48 8.84 9.9 6 9 1012.9 0 19.7 24.2 37.2 97.6 92.5 318.8
Lockhart River 11 21:50 25.1 97 22.45 24.6 7 9 1011.8 0 48.3 46.8 94.0 249.0 279.8 971.8
Longreach 11 21:50 21.1 34 6.26 4.6 17 19 1014.3 0 14.3 20.6 28.2 73.7 62.9 214.9
Low Isles 11 21:50 27.7 86 23.01 25.1 19 20 1010.7 0 49.2 46.4 93.5 247.6 278.9 969.4
Mackay 11 21:50 25.8 95 22.87 24.9 7 9 1010 0 49.1 47.1 95.2 252.0 283.8 985.9
Mackay Airport 11 21:50 25.6 92 21.9 24.2 7 7 1010 0 47.1 45.3 90.5 239.6 268.5 932.6
Mackay Racecourse 11 21:50 24.9 95 21.75 24 0 0 1013.1 0 46.8 45.5 90.8 240.3 269.1 934.7
Mareeba 11 21:50 22.4 93 18.47 21.2 0 0 1011.3 0 40.1 40.2 77.2 204.2 224.0 777.8
Maryborough 11 21:50 20.5 82 14.59 17.3 6 7 1013.4 0 32.0 33.9 61.0 161.0 170.3 590.3
Middle Percy Island 11 21:50 24.6 90 20.26 22.8 11 11 1011.5 0 43.7 42.6 83.6 221.2 245.6 853.0
Miles 11 21:50 15.9 58 7.85 7.7 15 19 1016.8 0 17.9 24.3 36.0 94.4 86.5 297.2
Moranbah Airport 11 21:50 24.7 35 7.92 8.2 15 17 1010.8 0 17.7 21.9 32.4 84.8 77.9 268.0
Mornington Island Airport 11 21:50 25.3 76 17.79 20.8 13 13 1010.8 0 38.4 37.5 71.1 188.1 205.2 712.7
Mount Isa 11 21:50 23.2 21 4.37 -0.3 15 17 1014.2 0 10.3 17.8 21.7 56.1 41.8 141.0
Mount Stuart (Defence) 11 21:50 25.1 97 22.45 24.6 7 7 1013.1 0 48.3 46.8 94.1 249.2 280.0 972.6
Nambour 11 21:50 16.9 68 9.78 11.1 6 6 1014 0 21.9 26.9 43.0 112.9 109.9 379.1
New May Downs 11 21:50 23.3 20 4.18 -0.9 11 15 1013.1 0 9.9 17.5 21.0 54.4 39.9 134.1
Normanton 11 21:50 28 29 7.89 8.3 13 13 1010.3 0 17.5 21.1 31.0 81.1 74.5 256.3
Oakey 11 21:50 13.9 49 5.87 3.4 22 28 1015.4 0 13.8 21.7 29.5 76.8 64.2 218.5
Palmerville 11 21:50 24.9 85 19.46 22.2 7 9 1010.7 0 42.0 40.9 79.3 209.9 231.8 805.3
Point Lookout 11 09:00 22.1 65 12.69 15.4 2 1013.1 0.1 27.8 30.0 51.6 136.1 140.3 485.9
Portable Qfrg Nr 11 21:40 24.4 90 20.03 22.6 0 2 1013.1 0.4 43.2 42.3 82.8 219.1 242.8 843.4
Portable Qfri (Inglewood) 11 21:40 14.3 36 4.42 -0.5 15 19 1013.1 0 10.7 19.5 24.2 62.8 47.1 158.6
Portable Qfrj (North Tamborine) 11 21:40 16.8 33 4.72 0.5 19 24 1013.1 0 11.3 19.4 24.5 63.5 49.0 165.3
Portable Qfrk (Ravenshoe) 11 21:40 16.1 90 12.34 14.5 2 4 1013.1 0 27.5 31.5 54.2 142.9 146.6 507.3
Portable Qfrl (Mt Fox) 11 21:40 21.7 94 17.93 20.7 0 2 1013.1 0 39.0 39.6 75.4 199.4 217.9 756.3
Portable Qfrm (Anduramba) 11 21:40 13.7 45 5.33 2.1 28 33 1013.1 0 12.6 20.9 27.5 71.6 57.9 196.3
Portable Qfrn (Wieambilla) 11 21:40 14.6 49 6.13 4 9 11 1013.1 0 14.3 21.9 30.0 78.4 66.6 227.0
Proserpine 11 21:50 24.6 94 21.16 23.6 9 11 1010.1 0 45.6 44.3 88.0 232.8 259.9 902.9
Redcliffe 11 21:50 21 35 6.41 5 17 19 1013.2 0 14.7 20.8 28.7 75.0 64.6 220.8
Redland (Alexandra Hills) 11 21:50 18.3 44 6.88 5.8 7 9 1013.1 0.6 15.7 22.1 31.3 81.9 72.2 247.2
Richmond 11 21:50 24.8 33 7.51 7.4 20 22 1012 0 16.8 21.4 31.0 81.1 73.4 252.1
Rockhampton 11 21:50 24.7 48 10.86 13 15 17 1012 0 23.8 26.2 42.9 112.8 112.4 388.8
Rolleston Airport 11 21:50 21.6 35 6.64 5.5 17 24 1014.6 0 15.1 21.0 29.3 76.6 66.7 228.3
Roma 11 21:50 12.5 62 6.82 5.4 15 17 1016.5 0 15.8 23.6 33.6 87.7 77.1 263.8
Samuel Hill 11 21:50 21.4 87 16.31 19.1 9 11 1011.2 4.2 35.6 36.5 67.9 179.5 193.4 671.0
Scherger 11 21:50 24.6 87 19.58 22.3 11 17 1011.6 1.2 42.2 41.3 80.3 212.4 234.8 815.5
South Johnstone 11 21:50 23.5 95 20.09 22.7 0 0 1010.7 0 43.5 42.8 83.9 222.1 246.4 855.6
St George 11 21:50 14.1 41 4.98 1.1 15 17 1018 0 11.9 20.5 26.3 68.4 53.8 182.0
St Lawrence 11 21:50 25.2 73 16.99 20 11 13 1011.1 0 36.7 36.1 67.6 178.8 193.7 672.7
Stanthorpe 11 15:00 19.7 64 10.87 12.7 1013.1 0 24.1 27.8 45.7 120.3 120.0 414.9
Sunshine Coast Airport 11 21:50 21.2 41 7.6 7.4 15 17 1013.8 0 17.1 22.4 32.8 85.7 77.9 267.4
Tewantin 11 21:50 21 54 9.89 11.3 2 7 1013.4 0 22.0 25.9 41.2 108.3 105.6 364.6
Thargomindah 11 21:50 15.9 32 4.33 -0.8 11 11 1019.5 0 10.5 19.3 23.7 61.2 45.5 153.0
The Monument 11 21:50 22.3 26 5.13 1.9 19 20 1015.2 0 11.9 18.9 24.3 63.0 50.1 169.9
Tin Can Bay (Defence) 11 21:50 20.1 85 14.77 17.5 4 4 1013.1 0 32.4 34.3 62.1 163.9 173.8 602.5
Toowoomba 11 21:50 12.3 53 5.76 3 22 26 1015.3 0 13.6 22.0 29.6 77.2 64.2 218.2
Townsville 11 21:50 26.2 92 22.65 24.8 7 9 1010.8 0 48.6 46.5 93.6 247.8 278.7 968.4
Townsville - Fanning River (Defence) 11 21:50 24 78 16.97 19.9 0 0 1013.1 0 36.7 36.7 68.7 181.7 196.8 683.2
Townsville Air Weapons Range (Defence) 11 21:50 22.3 89 17.57 20.4 9 11 1013.1 0 38.2 38.6 73.1 193.3 210.5 730.8
Trepell 11 21:50 22.1 24 4.68 0.6 17 20 1014.4 0 11.0 18.4 22.9 59.3 45.5 153.9
Urandangi 11 21:50 22.9 26 5.31 2.4 20 24 1015.9 0 12.3 19.0 24.7 64.1 51.6 175.4
Warwick 11 21:50 11.7 54 5.65 2.7 11 13 1014.7 0 13.4 21.9 29.4 76.7 63.3 215.0
Weipa 11 21:50 25.7 87 20.83 23.4 13 15 1011.5 0.2 44.8 43.2 85.1 225.4 251.0 872.1
Wellcamp Airport 11 21:49 13 51 5.78 3.1 15 17 1016.9 0 13.6 21.9 29.5 76.9 63.9 217.5
Williamson 11 21:50 22.1 82 16.01 18.9 9 11 1011.6 0.6 34.9 35.7 65.9 174.2 187.2 649.5
Willis Island 11 21:50 26.1 73 17.87 20.9 0 0 1012.2 0 38.5 37.4 70.8 187.3 204.4 710.0
Windorah 11 21:50 19.3 29 4.81 0.8 9 11 1017.2 0 11.4 19.2 24.2 62.7 48.6 164.4
Winton 11 21:50 22.1 33 6.44 5.1 13 13 1013.5 0 14.7 20.6 28.5 74.3 64.1 219.1
Woolshed 11 21:50 22.7 63 12.73 15.3 4 4 1011.2 0 27.9 29.8 51.3 135.3 139.5 483.4
Yeppoon 11 21:50 22.8 85 17.27 20.1 11 13 1011.6 0.6 37.5 37.7 71.1 188.0 204.3 709.2

Last Refresh: 11-Apr-2021 21:29:03

Bureau of Meteorology